Time;durP1;ratioP1;P1;durP2;ratioP2;P2;SDS_P1;SDS_P2;PMS_P1;PMS_P2;Temp;Humidity;BMP_temperature;BMP_pressure;BME280_temperature;BME280_humidity;BME280_pressure;Samples;Min_cycle;Max_cycle;Signal;HPM_P1;HPM_P2
2023/07/22 00:01:25;;;;;;;5.33;4.93;;;17.80;99.90;;;;;;4936044;28;20523;-78
2023/07/22 00:03:54;;;;;;;5.47;4.97;;;17.80;99.90;;;;;;4926867;28;20974;-78
2023/07/22 00:06:23;;;;;;;4.27;3.97;;;17.80;99.90;;;;;;4932321;28;20476;-77
2023/07/22 00:08:51;;;;;;;3.93;3.63;;;17.70;99.90;;;;;;4921403;28;20477;-78
2023/07/22 00:11:18;;;;;;;4.30;4.00;;;17.70;99.90;;;;;;4916970;29;20531;-78
2023/07/22 00:13:45;;;;;;;4.67;4.37;;;17.70;99.90;;;;;;4920074;29;20560;-77
2023/07/22 00:16:12;;;;;;;4.63;4.33;;;17.70;99.90;;;;;;4934957;28;20460;-77
2023/07/22 00:18:39;;;;;;;4.20;3.90;;;17.70;99.90;;;;;;4959036;28;20818;-77
2023/07/22 00:21:06;;;;;;;4.33;4.03;;;17.70;99.90;;;;;;4957729;28;20558;-78
2023/07/22 00:23:35;;;;;;;4.83;4.53;;;17.80;99.90;;;;;;4958045;28;20480;-78
2023/07/22 00:26:02;;;;;;;4.70;4.30;;;17.70;99.90;;;;;;4958175;28;20472;-80
2023/07/22 00:28:29;;;;;;;4.70;4.30;;;17.70;99.90;;;;;;4958166;28;20478;-80
2023/07/22 00:30:57;;;;;;;4.93;4.63;;;17.70;99.90;;;;;;4958184;28;20480;-77
2023/07/22 00:33:24;;;;;;;4.30;4.00;;;17.80;99.90;;;;;;4958585;28;20467;-79
2023/07/22 00:35:55;;;;;;;5.17;4.73;;;17.70;99.90;;;;;;4958075;28;20973;-80
2023/07/22 00:38:22;;;;;;;4.30;4.00;;;17.70;99.90;;;;;;4958095;28;20464;-80
2023/07/22 00:40:50;;;;;;;3.80;3.57;;;17.80;99.90;;;;;;4957893;28;20490;-80
2023/07/22 00:43:18;;;;;;;4.33;4.03;;;17.80;99.90;;;;;;4957444;28;20591;-80
2023/07/22 00:45:45;;;;;;;4.53;4.23;;;17.80;99.90;;;;;;4958187;28;20479;-77
2023/07/22 00:48:14;;;;;;;10.73;5.20;;;17.90;99.90;;;;;;4957445;28;20471;-81
2023/07/22 00:50:41;;;;;;;5.73;5.23;;;17.90;99.90;;;;;;4957780;28;20495;-80
2023/07/22 00:53:12;;;;;;;6.27;5.67;;;17.90;99.90;;;;;;4957311;28;20467;-77
2023/07/22 00:55:40;;;;;;;7.57;4.60;;;17.90;99.90;;;;;;4955965;28;20487;-77
2023/07/22 00:58:09;;;;;;;5.57;5.07;;;17.90;99.90;;;;;;4957036;28;20480;-77
2023/07/22 01:00:39;;;;;;;5.30;4.90;;;17.90;99.90;;;;;;4957850;28;20468;-78
2023/07/22 01:03:07;;;;;;;6.90;6.03;;;17.90;99.90;;;;;;4957585;28;20467;-80
2023/07/22 01:05:38;;;;;;;5.97;5.40;;;17.90;99.90;;;;;;4947255;28;20472;-80
2023/07/22 01:08:06;;;;;;;6.10;4.80;;;17.90;99.90;;;;;;4938026;28;20569;-78
2023/07/22 01:10:33;;;;;;;6.93;5.57;;;17.90;99.90;;;;;;4938952;28;20560;-80
2023/07/22 01:13:00;;;;;;;5.20;4.80;;;17.80;99.90;;;;;;4938506;28;20496;-78
2023/07/22 01:15:29;;;;;;;5.93;5.50;;;17.80;99.90;;;;;;4937786;28;20894;-78
2023/07/22 01:18:01;;;;;;;5.70;5.30;;;17.90;99.90;;;;;;4938817;28;20472;-80
2023/07/22 01:20:29;;;;;;;5.57;4.93;;;17.80;99.90;;;;;;4937754;28;20461;-77
2023/07/22 01:22:58;;;;;;;4.80;4.40;;;17.80;99.90;;;;;;4938350;28;20476;-80
2023/07/22 01:25:25;;;;;;;6.33;5.83;;;17.80;99.90;;;;;;4938259;28;20791;-80
2023/07/22 01:27:53;;;;;;;5.60;5.10;;;17.80;99.90;;;;;;4940743;28;20529;-77
2023/07/22 01:30:20;;;;;;;5.90;5.50;;;17.90;99.90;;;;;;4937952;28;20996;-78
2023/07/22 01:32:50;;;;;;;5.70;5.30;;;17.90;99.90;;;;;;4938855;28;20818;-81
2023/07/22 01:35:20;;;;;;;5.57;5.07;;;17.90;99.90;;;;;;4937987;28;20620;-80
2023/07/22 01:37:47;;;;;;;6.63;6.10;;;17.80;99.90;;;;;;4938154;28;20822;-80
2023/07/22 01:40:15;;;;;;;5.60;5.13;;;17.90;99.90;;;;;;4937266;28;20564;-78
2023/07/22 01:42:43;;;;;;;5.17;4.87;;;17.90;99.90;;;;;;4937938;28;20987;-80
2023/07/22 01:45:11;;;;;;;6.40;5.90;;;17.90;99.90;;;;;;4937193;28;20477;-77
2023/07/22 01:47:39;;;;;;;5.80;5.40;;;17.90;99.90;;;;;;4937892;28;20479;-77
2023/07/22 01:50:07;;;;;;;5.30;5.00;;;17.80;99.90;;;;;;4938173;28;20971;-80
2023/07/22 01:52:35;;;;;;;7.17;6.47;;;17.80;99.90;;;;;;4938584;28;20471;-76
2023/07/22 01:55:05;;;;;;;5.73;5.23;;;17.90;99.90;;;;;;4937860;28;20485;-77
2023/07/22 01:57:33;;;;;;;5.90;5.50;;;17.90;99.90;;;;;;4936611;28;20457;-80
2023/07/22 02:00:00;;;;;;;7.73;5.70;;;17.90;99.90;;;;;;4937418;28;20471;-81
2023/07/22 02:02:28;;;;;;;6.03;5.63;;;17.90;99.90;;;;;;4936866;28;20485;-77
2023/07/22 02:04:55;;;;;;;6.27;5.77;;;17.90;99.90;;;;;;4936001;28;20555;-77
2023/07/22 02:07:22;;;;;;;6.40;5.90;;;17.90;99.90;;;;;;4937234;28;20480;-81
2023/07/22 02:09:51;;;;;;;6.07;5.57;;;17.90;99.90;;;;;;4937774;28;20477;-78
2023/07/22 02:12:18;;;;;;;5.57;5.17;;;17.90;99.90;;;;;;4937200;28;20806;-80
2023/07/22 02:14:47;;;;;;;7.37;6.67;;;17.80;99.90;;;;;;4937054;28;20975;-78
2023/07/22 02:17:13;;;;;;;5.53;5.13;;;17.80;99.90;;;;;;4936868;28;20472;-77
2023/07/22 02:19:40;;;;;;;5.10;4.70;;;17.80;99.90;;;;;;4936896;28;20469;-80
2023/07/22 02:22:07;;;;;;;5.63;5.23;;;17.80;99.90;;;;;;4936467;28;20543;-80
2023/07/22 02:24:34;;;;;;;4.93;4.53;;;17.80;99.90;;;;;;4936351;28;20504;-78
2023/07/22 02:27:01;;;;;;;4.80;4.50;;;17.70;99.90;;;;;;4936928;28;20477;-77
2023/07/22 02:29:28;;;;;;;5.37;4.97;;;17.70;99.90;;;;;;4936296;28;20503;-80
2023/07/22 02:31:57;;;;;;;4.40;4.20;;;17.70;99.90;;;;;;4937322;28;20481;-78
2023/07/22 02:34:24;;;;;;;5.90;5.50;;;17.70;99.90;;;;;;4935331;28;20473;-80
2023/07/22 02:36:51;;;;;;;5.70;5.30;;;17.70;99.90;;;;;;4940216;28;20875;-80
2023/07/22 02:39:18;;;;;;;4.90;4.60;;;17.70;99.90;;;;;;4938844;28;20501;-78
2023/07/22 02:41:45;;;;;;;6.60;6.10;;;17.60;99.90;;;;;;4937138;28;20465;-80
2023/07/22 02:44:13;;;;;;;5.63;5.23;;;17.60;99.90;;;;;;4936872;28;20500;-78
2023/07/22 02:46:41;;;;;;;6.50;5.90;;;17.70;99.90;;;;;;4935370;28;20473;-77
2023/07/22 02:49:10;;;;;;;5.53;5.03;;;17.60;99.90;;;;;;4936827;28;20528;-80
2023/07/22 02:51:36;;;;;;;4.63;4.33;;;17.60;99.90;;;;;;4936585;28;20479;-80
2023/07/22 02:54:04;;;;;;;4.53;4.17;;;17.60;99.90;;;;;;4935752;28;20568;-80
2023/07/22 02:56:34;;;;;;;4.40;4.20;;;17.60;99.90;;;;;;4935572;28;20476;-77
2023/07/22 02:59:01;;;;;;;8.43;4.17;;;17.50;99.90;;;;;;4936863;28;20472;-78
2023/07/22 03:01:29;;;;;;;3.60;3.37;;;17.50;99.90;;;;;;4936228;28;20532;-78
2023/07/22 03:03:56;;;;;;;5.70;5.23;;;17.50;99.90;;;;;;4935988;28;20484;-78
2023/07/22 03:06:26;;;;;;;4.60;4.20;;;17.50;99.90;;;;;;4936157;28;20993;-80
2023/07/22 03:08:54;;;;;;;4.30;4.00;;;17.50;99.90;;;;;;4936152;28;20500;-80
2023/07/22 03:11:24;;;;;;;3.77;3.57;;;17.40;99.90;;;;;;4935879;28;20791;-78
2023/07/22 03:13:51;;;;;;;3.73;3.53;;;17.40;99.90;;;;;;4936173;28;20499;-81
2023/07/22 03:16:18;;;;;;;3.73;3.53;;;17.40;99.90;;;;;;4936420;28;20473;-80
2023/07/22 03:18:47;;;;;;;4.60;4.30;;;17.40;99.90;;;;;;4935533;28;20535;-78
2023/07/22 03:21:13;;;;;;;8.47;7.70;;;17.40;99.90;;;;;;4936198;28;20500;-78
2023/07/22 03:23:42;;;;;;;7.53;5.63;;;17.40;99.90;;;;;;4935451;28;20887;-80
2023/07/22 03:26:09;;;;;;;4.53;4.10;;;17.40;99.90;;;;;;4935762;28;20878;-77
2023/07/22 03:28:36;;;;;;;3.40;3.10;;;17.40;99.90;;;;;;4934662;28;20580;-77
2023/07/22 03:31:04;;;;;;;5.13;4.47;;;17.40;99.90;;;;;;4934716;28;20472;-78
2023/07/22 03:33:31;;;;;;;5.27;4.77;;;17.30;99.90;;;;;;4935543;28;20579;-78
2023/07/22 03:35:58;;;;;;;6.90;6.30;;;17.30;99.90;;;;;;4936318;28;20809;-78
2023/07/22 03:38:25;;;;;;;4.73;4.43;;;17.30;99.90;;;;;;4935666;28;20539;-77
2023/07/22 03:40:54;;;;;;;4.60;4.20;;;17.30;99.90;;;;;;4936056;28;20999;-78
2023/07/22 03:43:21;;;;;;;5.13;4.63;;;17.30;99.90;;;;;;4936237;28;20502;-77
2023/07/22 03:45:48;;;;;;;5.03;4.63;;;17.30;99.90;;;;;;4935589;28;20552;-80
2023/07/22 03:48:15;;;;;;;5.30;4.80;;;17.30;99.90;;;;;;4938761;28;21027;-78
2023/07/22 03:50:45;;;;;;;4.63;4.03;;;17.30;99.90;;;;;;4939451;28;20500;-80
2023/07/22 03:53:13;;;;;;;5.73;5.33;;;17.20;99.90;;;;;;4939459;28;20472;-77
2023/07/22 03:55:41;;;;;;;5.80;5.30;;;17.20;99.90;;;;;;4936636;28;21014;-77
2023/07/22 03:58:09;;;;;;;5.00;4.60;;;17.20;99.90;;;;;;4939591;28;20468;-76
2023/07/22 04:00:36;;;;;;;4.80;4.30;;;17.20;99.90;;;;;;4939177;28;20479;-80
2023/07/22 04:03:03;;;;;;;5.03;4.73;;;17.20;99.90;;;;;;4939000;28;20499;-80
2023/07/22 04:05:30;;;;;;;4.90;4.50;;;17.20;99.90;;;;;;4939290;28;20476;-80
2023/07/22 04:07:57;;;;;;;4.93;4.50;;;17.20;99.90;;;;;;4938995;28;20951;-77
2023/07/22 04:10:24;;;;;;;4.07;3.77;;;17.30;99.90;;;;;;4939250;28;20543;-77
2023/07/22 04:12:51;;;;;;;4.50;4.17;;;17.30;99.90;;;;;;4938577;28;20484;-80
2023/07/22 04:15:22;;;;;;;4.33;4.03;;;17.30;99.90;;;;;;4939365;28;20476;-80
2023/07/22 04:17:49;;;;;;;4.13;3.83;;;17.30;99.90;;;;;;4937826;28;20468;-80
2023/07/22 04:20:17;;;;;;;4.50;4.10;;;17.30;99.90;;;;;;4939121;28;20488;-77
2023/07/22 04:22:44;;;;;;;3.40;3.10;;;17.30;99.90;;;;;;4938792;28;20488;-78
2023/07/22 04:25:12;;;;;;;8.47;4.30;;;17.30;99.90;;;;;;4939302;28;20476;-77
2023/07/22 04:27:39;;;;;;;4.67;4.33;;;17.40;99.90;;;;;;4939068;28;20476;-80
2023/07/22 04:30:07;;;;;;;4.07;3.67;;;17.40;99.90;;;;;;4938983;28;20531;-77
2023/07/22 04:32:36;;;;;;;4.03;3.73;;;17.40;99.90;;;;;;4938604;28;20531;-80
2023/07/22 04:35:04;;;;;;;4.53;4.23;;;17.40;99.90;;;;;;4939382;28;20970;-80
2023/07/22 04:37:32;;;;;;;4.33;4.03;;;17.40;99.90;;;;;;4938029;28;20480;-80
2023/07/22 04:39:59;;;;;;;4.40;4.00;;;17.40;99.90;;;;;;4938810;28;20473;-80
2023/07/22 04:42:27;;;;;;;4.10;3.80;;;17.40;99.90;;;;;;4939045;28;20480;-79
2023/07/22 04:44:54;;;;;;;4.50;4.10;;;17.50;99.90;;;;;;4938038;28;20498;-77
2023/07/22 04:47:21;;;;;;;6.13;5.53;;;17.50;99.90;;;;;;4939048;28;21009;-78
2023/07/22 04:49:49;;;;;;;5.63;4.90;;;17.50;99.90;;;;;;4938884;28;20476;-77
2023/07/22 04:52:17;;;;;;;4.30;4.00;;;17.50;99.90;;;;;;4938805;28;20858;-77
2023/07/22 04:54:47;;;;;;;4.80;4.40;;;17.50;99.90;;;;;;4938275;28;20505;-77
2023/07/22 04:57:14;;;;;;;5.37;4.87;;;17.50;99.90;;;;;;4938719;28;20543;-80
2023/07/22 04:59:41;;;;;;;6.83;4.93;;;17.50;99.90;;;;;;4937111;28;20473;-80
2023/07/22 05:02:09;;;;;;;5.93;4.70;;;17.50;99.90;;;;;;4939148;28;20547;-78
2023/07/22 05:04:36;;;;;;;4.50;4.10;;;17.50;99.90;;;;;;4938192;28;20476;-78
2023/07/22 05:07:04;;;;;;;5.37;4.87;;;17.50;99.90;;;;;;4938310;28;20472;-80
2023/07/22 05:09:33;;;;;;;4.67;4.27;;;17.60;99.90;;;;;;4938609;28;20811;-80
2023/07/22 05:12:00;;;;;;;8.17;5.40;;;17.50;99.90;;;;;;4937820;28;20458;-78
2023/07/22 05:14:27;;;;;;;5.20;4.80;;;17.50;99.90;;;;;;4938496;28;20572;-78
2023/07/22 05:16:54;;;;;;;5.80;5.00;;;17.60;99.90;;;;;;4937882;28;20537;-80
2023/07/22 05:19:21;;;;;;;5.70;5.20;;;17.60;99.90;;;;;;4937930;28;20556;-77
2023/07/22 05:21:48;;;;;;;5.90;4.97;;;17.60;99.90;;;;;;4937691;28;20583;-78
2023/07/22 05:24:16;;;;;;;6.50;5.90;;;17.70;99.90;;;;;;4938316;28;20488;-80
2023/07/22 05:26:43;;;;;;;7.43;5.73;;;17.70;99.90;;;;;;4937452;28;20884;-80
2023/07/22 05:29:10;;;;;;;5.43;5.03;;;17.70;99.90;;;;;;4938252;28;20473;-80
2023/07/22 05:31:38;;;;;;;6.47;5.83;;;17.80;99.90;;;;;;4937664;28;21013;-80
2023/07/22 05:34:05;;;;;;;8.50;6.93;;;17.80;99.90;;;;;;4937695;28;20539;-77
2023/07/22 05:36:34;;;;;;;6.20;5.70;;;17.80;99.90;;;;;;4937914;28;20564;-77
2023/07/22 05:39:01;;;;;;;6.87;6.17;;;17.80;99.90;;;;;;4937540;28;20460;-78
2023/07/22 05:41:29;;;;;;;7.27;6.53;;;17.90;99.90;;;;;;4938150;28;20476;-77
2023/07/22 05:43:56;;;;;;;6.73;6.13;;;17.90;99.90;;;;;;4937101;28;20488;-77
2023/07/22 05:46:24;;;;;;;8.17;7.37;;;17.90;99.90;;;;;;4937976;28;20472;-80
2023/07/22 05:48:51;;;;;;;6.50;5.90;;;17.90;99.90;;;;;;4937030;28;20472;-77
2023/07/22 05:51:18;;;;;;;9.53;6.97;;;18.00;99.90;;;;;;4937000;28;20476;-80
2023/07/22 05:53:45;;;;;;;10.20;7.10;;;18.10;99.90;;;;;;4936524;28;20476;-80
2023/07/22 05:56:12;;;;;;;6.43;5.83;;;18.20;99.90;;;;;;4937561;28;20514;-78
2023/07/22 05:58:40;;;;;;;6.70;6.03;;;18.20;99.90;;;;;;4937519;28;20560;-80
2023/07/22 06:01:07;;;;;;;7.90;7.20;;;18.30;99.90;;;;;;4935520;28;20994;-78
2023/07/22 06:03:34;;;;;;;7.03;6.43;;;18.30;99.90;;;;;;4936696;28;20477;-80
2023/07/22 06:06:01;;;;;;;7.20;6.60;;;18.40;99.90;;;;;;4937230;28;20469;-80
2023/07/22 06:08:31;;;;;;;6.77;6.17;;;18.40;99.90;;;;;;4937010;28;20472;-77
2023/07/22 06:10:58;;;;;;;8.90;6.50;;;18.50;99.90;;;;;;4936292;28;20473;-78
2023/07/22 06:13:26;;;;;;;9.87;8.30;;;18.60;99.90;;;;;;4937363;28;20544;-80
2023/07/22 06:15:54;;;;;;;10.30;7.40;;;18.60;99.90;;;;;;4936869;28;20492;-79
2023/07/22 06:18:21;;;;;;;7.73;6.93;;;18.70;99.90;;;;;;4937290;28;21022;-80
2023/07/22 06:20:48;;;;;;;9.83;8.10;;;18.70;99.90;;;;;;4936880;28;20476;-80
2023/07/22 06:23:15;;;;;;;10.67;7.37;;;18.70;99.90;;;;;;4937533;28;20519;-80
2023/07/22 06:25:42;;;;;;;6.70;6.00;;;18.90;99.90;;;;;;4937249;28;20512;-78
2023/07/22 06:28:10;;;;;;;7.87;7.07;;;19.00;99.90;;;;;;4936530;28;20472;-80
2023/07/22 06:30:37;;;;;;;9.37;7.13;;;19.00;99.90;;;;;;4936876;28;20481;-81
2023/07/22 06:33:05;;;;;;;8.57;6.83;;;19.10;99.90;;;;;;4936249;28;20472;-78
2023/07/22 06:35:32;;;;;;;7.77;7.10;;;19.20;99.90;;;;;;4937101;28;20504;-78
2023/07/22 06:37:59;;;;;;;7.20;5.70;;;19.30;99.90;;;;;;4936182;28;20531;-80
2023/07/22 06:40:26;;;;;;;6.90;6.30;;;19.40;99.90;;;;;;4936479;28;20568;-80
2023/07/22 06:42:53;;;;;;;7.43;5.57;;;19.50;99.90;;;;;;4936450;28;20472;-80
2023/07/22 06:45:24;;;;;;;5.67;5.17;;;19.60;99.90;;;;;;4936403;28;20804;-77
2023/07/22 06:47:53;;;;;;;10.43;6.40;;;19.70;99.90;;;;;;4936318;28;20987;-77
2023/07/22 06:50:21;;;;;;;8.60;6.87;;;19.70;99.90;;;;;;4936760;28;20570;-80
2023/07/22 06:52:48;;;;;;;6.83;5.97;;;19.80;99.90;;;;;;4936112;28;20552;-78
2023/07/22 06:55:15;;;;;;;9.30;5.97;;;19.90;99.90;;;;;;4936557;28;20551;-77
2023/07/22 06:57:43;;;;;;;6.73;6.03;;;20.00;99.90;;;;;;4936809;28;20873;-80
2023/07/22 07:00:12;;;;;;;8.83;6.57;;;20.10;99.90;;;;;;4935857;28;20480;-80
2023/07/22 07:02:38;;;;;;;7.03;5.37;;;20.10;99.90;;;;;;4936452;28;20485;-80
2023/07/22 07:05:06;;;;;;;5.40;4.87;;;20.20;99.90;;;;;;4935347;28;20476;-77
2023/07/22 07:07:37;;;;;;;6.20;5.60;;;20.20;99.90;;;;;;4936327;28;20527;-80
2023/07/22 07:10:04;;;;;;;5.30;4.80;;;20.30;99.90;;;;;;4935536;28;20473;-80
2023/07/22 07:12:31;;;;;;;5.43;4.93;;;20.40;99.90;;;;;;4936348;28;20515;-77
2023/07/22 07:15:01;;;;;;;6.03;4.60;;;20.40;99.90;;;;;;4935891;28;20476;-77
2023/07/22 07:17:28;;;;;;;5.27;4.57;;;20.40;99.90;;;;;;4936407;28;20477;-80
2023/07/22 07:19:55;;;;;;;6.60;4.73;;;20.40;99.90;;;;;;4935924;28;20491;-77
2023/07/22 07:22:22;;;;;;;8.67;4.13;;;20.50;99.90;;;;;;4935759;28;20896;-80
2023/07/22 07:24:51;;;;;;;4.77;4.27;;;20.50;99.90;;;;;;4938275;28;20525;-77
2023/07/22 07:27:18;;;;;;;5.63;4.77;;;20.50;99.90;;;;;;4922219;28;20453;-81
2023/07/22 07:29:45;;;;;;;4.60;4.20;;;20.50;99.90;;;;;;4936189;28;20872;-78
2023/07/22 07:32:13;;;;;;;5.00;4.20;;;20.70;99.90;;;;;;4935514;28;20473;-80
2023/07/22 07:34:40;;;;;;;4.73;4.27;;;20.70;99.90;;;;;;4935929;28;20528;-77
2023/07/22 07:37:07;;;;;;;5.30;4.73;;;20.70;99.90;;;;;;4935555;28;20559;-80
2023/07/22 07:39:34;;;;;;;4.20;3.80;;;20.70;99.90;;;;;;4935964;28;20468;-80
2023/07/22 07:42:02;;;;;;;5.50;4.97;;;20.70;99.90;;;;;;4935839;28;20476;-77
2023/07/22 07:44:30;;;;;;;6.37;5.77;;;20.80;99.90;;;;;;4935194;28;20479;-78
2023/07/22 07:46:57;;;;;;;6.33;5.60;;;20.80;99.90;;;;;;4935955;28;20548;-78
2023/07/22 07:49:24;;;;;;;6.43;4.67;;;20.80;99.90;;;;;;4935842;28;20496;-78
2023/07/22 07:51:51;;;;;;;7.30;5.10;;;20.90;99.90;;;;;;4936144;28;20823;-78
2023/07/22 07:54:18;;;;;;;5.70;5.20;;;20.90;99.90;;;;;;4935359;28;20480;-80
2023/07/22 07:56:44;;;;;;;5.90;5.40;;;21.00;99.90;;;;;;4935652;28;20460;-80
2023/07/22 07:59:13;;;;;;;5.50;4.80;;;21.00;99.90;;;;;;4935044;28;20483;-77
2023/07/22 08:01:41;;;;;;;7.80;6.13;;;21.00;99.90;;;;;;4931924;28;20522;-77
2023/07/22 08:04:08;;;;;;;10.40;7.30;;;21.00;99.90;;;;;;4943659;28;20485;-77
2023/07/22 08:06:37;;;;;;;6.90;6.20;;;21.10;99.90;;;;;;4934997;28;20472;-78
2023/07/22 08:09:05;;;;;;;8.40;5.57;;;21.10;99.90;;;;;;4935913;28;20472;-78
2023/07/22 08:11:32;;;;;;;7.27;5.70;;;21.00;99.90;;;;;;4936050;28;20468;-80
2023/07/22 08:13:59;;;;;;;7.23;5.20;;;21.10;99.90;;;;;;4935939;28;20528;-80
2023/07/22 08:16:27;;;;;;;5.80;4.90;;;21.10;99.90;;;;;;4935512;28;20456;-80
2023/07/22 08:18:55;;;;;;;6.03;5.50;;;21.10;99.90;;;;;;4935494;28;20481;-78
2023/07/22 08:21:22;;;;;;;7.10;5.40;;;21.20;99.90;;;;;;4935055;28;20551;-77
2023/07/22 08:23:49;;;;;;;5.03;4.63;;;21.20;99.90;;;;;;4935716;28;20579;-77
2023/07/22 08:26:20;;;;;;;5.30;4.80;;;21.30;99.90;;;;;;4935369;28;20476;-82
2023/07/22 08:28:49;;;;;;;5.83;4.17;;;21.30;99.90;;;;;;4933776;28;20469;-81
2023/07/22 08:31:19;;;;;;;5.17;4.77;;;21.40;99.90;;;;;;4935570;28;20855;-80
2023/07/22 08:33:50;;;;;;;5.40;4.90;;;21.40;99.90;;;;;;4937817;28;20506;-77
2023/07/22 08:36:17;;;;;;;5.20;4.70;;;21.40;99.90;;;;;;4937790;28;20496;-77
2023/07/22 08:38:44;;;;;;;7.87;5.27;;;21.50;99.90;;;;;;4938427;28;20488;-81
2023/07/22 08:41:18;;;;;;;5.33;4.87;;;21.50;99.90;;;;;;4938629;28;20469;-81
2023/07/22 08:43:47;;;;;;;4.60;4.20;;;21.50;99.90;;;;;;4938939;28;20503;-80
2023/07/22 08:46:16;;;;;;;6.27;5.57;;;21.50;99.90;;;;;;4939398;28;20492;-79
2023/07/22 08:48:47;;;;;;;6.13;5.60;;;21.40;99.90;;;;;;4938945;28;20468;-82
2023/07/22 08:51:17;;;;;;;5.23;4.70;;;21.30;99.90;;;;;;4938407;28;20484;-80
2023/07/22 08:53:45;;;;;;;4.87;4.40;;;21.30;99.90;;;;;;4938887;28;20479;-81
2023/07/22 08:56:12;;;;;;;6.40;5.10;;;21.10;99.90;;;;;;4938282;28;20563;-81
2023/07/22 08:58:42;;;;;;;6.07;5.47;;;21.20;99.90;;;;;;4938848;28;20986;-81
2023/07/22 09:01:10;;;;;;;6.20;5.60;;;21.30;99.90;;;;;;4938252;28;20469;-80
2023/07/22 09:03:40;;;;;;;7.03;5.40;;;21.40;99.90;;;;;;4938591;28;20567;-80
2023/07/22 09:06:07;;;;;;;5.10;4.63;;;21.50;99.90;;;;;;4938513;28;20997;-80
2023/07/22 09:08:36;;;;;;;5.40;4.90;;;21.30;99.90;;;;;;4937925;28;20468;-80
2023/07/22 09:11:03;;;;;;;5.80;4.90;;;21.30;99.90;;;;;;4938318;28;20555;-80
2023/07/22 09:13:30;;;;;;;6.07;5.17;;;21.20;99.90;;;;;;4937585;28;20959;-77
2023/07/22 09:15:59;;;;;;;5.40;4.90;;;21.10;99.90;;;;;;4938174;28;20564;-80
2023/07/22 09:18:26;;;;;;;6.43;4.80;;;21.20;99.90;;;;;;4937094;28;20802;-77
2023/07/22 09:20:53;;;;;;;5.70;4.27;;;21.20;99.90;;;;;;4938793;28;20472;-80
2023/07/22 09:23:36;;;;;;;5.43;4.30;;;21.30;99.90;;;;;;4937674;28;20482;-77
2023/07/22 09:26:15;;;;;;;5.33;4.50;;;21.40;99.90;;;;;;4938301;28;21048;-77
2023/07/22 09:28:55;;;;;;;5.93;4.37;;;21.50;99.90;;;;;;4937952;28;20460;-77
2023/07/22 09:31:23;;;;;;;5.83;5.23;;;21.60;99.90;;;;;;4937715;28;20548;-77
2023/07/22 09:33:50;;;;;;;6.60;5.77;;;21.60;99.90;;;;;;4938019;28;20492;-77
2023/07/22 09:36:17;;;;;;;5.80;5.30;;;21.80;99.90;;;;;;4937639;28;20560;-77
2023/07/22 09:38:46;;;;;;;5.07;4.40;;;21.80;99.90;;;;;;4937435;28;20844;-77
2023/07/22 09:41:20;;;;;;;5.43;4.50;;;21.90;99.90;;;;;;4938133;28;20477;-80
2023/07/22 09:43:49;;;;;;;5.20;4.80;;;22.00;99.90;;;;;;4937210;28;20469;-77
2023/07/22 09:46:21;;;;;;;5.83;5.23;;;22.20;99.90;;;;;;4937014;28;20548;-79
2023/07/22 09:48:48;;;;;;;5.90;4.50;;;22.30;99.90;;;;;;4937654;28;20506;-80
2023/07/22 09:51:16;;;;;;;6.10;4.57;;;22.30;99.90;;;;;;4937609;28;20959;-80
2023/07/22 09:54:01;;;;;;;4.67;4.27;;;22.30;99.90;;;;;;4936787;28;20468;-77
2023/07/22 09:56:29;;;;;;;5.13;4.63;;;22.40;99.10;;;;;;4937163;28;20547;-77
2023/07/22 09:58:57;;;;;;;4.20;3.77;;;22.50;99.20;;;;;;4937723;28;20657;-77
2023/07/22 10:01:25;;;;;;;3.73;3.43;;;22.50;99.40;;;;;;4937215;28;20552;-77
2023/07/22 10:03:55;;;;;;;4.90;4.40;;;22.60;98.60;;;;;;4937502;28;20548;-77
2023/07/22 10:06:25;;;;;;;3.40;3.10;;;22.60;97.90;;;;;;4937277;28;20560;-80
2023/07/22 10:08:52;;;;;;;3.50;3.13;;;22.60;97.60;;;;;;4937162;28;20473;-77
2023/07/22 10:11:20;;;;;;;3.80;2.83;;;22.60;97.50;;;;;;4937542;28;20476;-77
2023/07/22 10:13:52;;;;;;;3.80;3.50;;;22.70;97.50;;;;;;4936975;28;21014;-80
2023/07/22 10:16:20;;;;;;;3.73;3.43;;;22.70;97.10;;;;;;4929533;28;20491;-80
2023/07/22 10:18:48;;;;;;;8.67;4.17;;;22.80;97.10;;;;;;4937045;28;20547;-80
2023/07/22 10:21:15;;;;;;;3.33;3.00;;;22.90;96.60;;;;;;4936910;28;20473;-77
2023/07/22 10:23:43;;;;;;;3.83;3.53;;;22.80;96.50;;;;;;4936388;28;20671;-77
2023/07/22 10:26:13;;;;;;;3.67;3.00;;;22.80;96.40;;;;;;4936556;28;20487;-77
2023/07/22 10:28:42;;;;;;;3.43;3.13;;;22.90;95.90;;;;;;4935275;28;20824;-80
2023/07/22 10:31:10;;;;;;;4.67;3.40;;;22.90;95.30;;;;;;4937153;28;20483;-80
2023/07/22 10:33:37;;;;;;;3.90;3.50;;;22.90;95.00;;;;;;4936814;28;20548;-80
2023/07/22 10:36:06;;;;;;;4.10;3.70;;;22.90;94.90;;;;;;4936406;28;20544;-80
2023/07/22 10:38:34;;;;;;;3.47;3.17;;;22.90;94.90;;;;;;4936018;28;20863;-80
2023/07/22 10:41:03;;;;;;;3.93;3.50;;;22.90;94.70;;;;;;4936650;28;20473;-80
2023/07/22 10:43:33;;;;;;;4.00;3.10;;;22.80;94.70;;;;;;4935968;28;20473;-77
2023/07/22 10:46:07;;;;;;;4.53;3.23;;;22.90;94.70;;;;;;4935602;28;20485;-79
2023/07/22 10:48:38;;;;;;;3.87;3.57;;;22.90;94.70;;;;;;4936105;28;20476;-80
2023/07/22 10:51:10;;;;;;;3.57;3.30;;;23.00;94.50;;;;;;4935625;28;20487;-77
2023/07/22 10:53:44;;;;;;;3.60;3.17;;;23.00;94.10;;;;;;4935776;28;20470;-79
2023/07/22 10:56:16;;;;;;;3.40;3.10;;;23.00;93.80;;;;;;4935586;28;20889;-77
2023/07/22 10:59:00;;;;;;;3.33;3.10;;;23.10;94.10;;;;;;4936349;28;20539;-79
2023/07/22 11:01:38;;;;;;;3.50;3.20;;;23.10;93.70;;;;;;4936335;28;20951;-79
2023/07/22 11:04:10;;;;;;;4.63;3.50;;;23.20;93.60;;;;;;4938555;28;20467;-76
2023/07/22 11:06:40;;;;;;;4.83;4.30;;;23.20;93.20;;;;;;4937033;28;20468;-77
2023/07/22 11:09:07;;;;;;;4.70;4.30;;;23.20;93.20;;;;;;4928324;28;20475;-80
2023/07/22 11:11:38;;;;;;;4.57;4.10;;;23.10;92.30;;;;;;4935964;28;20473;-80
2023/07/22 11:14:15;;;;;;;4.23;3.83;;;23.20;92.40;;;;;;4935454;28;20491;-80
2023/07/22 11:16:44;;;;;;;4.37;3.77;;;23.40;92.40;;;;;;4936206;28;20465;-76
2023/07/22 11:19:15;;;;;;;4.23;3.27;;;23.40;92.80;;;;;;4939266;28;20848;-77
2023/07/22 11:21:42;;;;;;;4.13;3.73;;;23.50;92.80;;;;;;4940348;28;20548;-76
2023/07/22 11:24:09;;;;;;;4.03;3.50;;;23.50;92.90;;;;;;4938176;28;20508;-80
2023/07/22 11:26:37;;;;;;;3.77;3.43;;;23.60;92.20;;;;;;4935387;28;20476;-80
2023/07/22 11:29:06;;;;;;;4.10;3.80;;;23.70;91.90;;;;;;4935380;28;20795;-81
2023/07/22 11:31:33;;;;;;;4.47;4.07;;;23.70;91.60;;;;;;4934867;28;20939;-76
2023/07/22 11:34:00;;;;;;;4.70;4.30;;;23.70;91.80;;;;;;4935688;28;20476;-80
2023/07/22 11:36:29;;;;;;;5.07;4.43;;;23.60;91.70;;;;;;4935143;28;20477;-77
2023/07/22 11:39:03;;;;;;;5.00;4.07;;;23.60;91.70;;;;;;4935262;28;20469;-80
2023/07/22 11:41:30;;;;;;;4.57;4.17;;;23.60;91.10;;;;;;4935169;28;20822;-80
2023/07/22 11:43:58;;;;;;;4.47;4.07;;;23.60;91.20;;;;;;4935156;28;20555;-80
2023/07/22 11:46:28;;;;;;;4.60;3.97;;;23.70;91.20;;;;;;4934653;28;20505;-77
2023/07/22 11:48:56;;;;;;;5.73;4.30;;;23.60;91.40;;;;;;4935515;28;20471;-80
2023/07/22 11:51:26;;;;;;;4.40;3.80;;;23.70;91.40;;;;;;4935832;28;20477;-77
2023/07/22 11:53:57;;;;;;;4.80;4.40;;;23.50;91.10;;;;;;4937382;28;20467;-77
2023/07/22 11:56:36;;;;;;;4.03;3.73;;;23.50;91.10;;;;;;4936139;28;20559;-80
2023/07/22 11:59:04;;;;;;;3.80;3.50;;;23.50;90.60;;;;;;4936232;28;20486;-77
2023/07/22 12:01:33;;;;;;;6.10;4.50;;;23.50;91.10;;;;;;4936574;28;20510;-77
2023/07/22 12:04:00;;;;;;;4.37;3.97;;;23.50;91.00;;;;;;4936344;28;20539;-77
2023/07/22 12:06:28;;;;;;;4.60;4.00;;;23.50;90.70;;;;;;4935196;28;20579;-77
2023/07/22 12:08:56;;;;;;;5.17;4.40;;;23.50;90.60;;;;;;4938057;28;20542;-77
2023/07/22 12:11:27;;;;;;;5.00;4.10;;;23.50;90.60;;;;;;4939019;28;20479;-77
2023/07/22 12:14:07;;;;;;;4.23;3.90;;;23.50;90.70;;;;;;4939412;28;20570;-80
2023/07/22 12:16:36;;;;;;;7.00;4.47;;;23.60;90.50;;;;;;4938958;28;20970;-80
2023/07/22 12:19:05;;;;;;;5.10;4.63;;;23.60;90.40;;;;;;4939767;28;20563;-79
2023/07/22 12:21:33;;;;;;;4.33;3.93;;;23.60;90.40;;;;;;4938658;28;20510;-76
2023/07/22 12:24:04;;;;;;;4.30;4.00;;;23.70;90.20;;;;;;4939252;28;20504;-76
2023/07/22 12:26:31;;;;;;;4.70;4.00;;;23.70;90.40;;;;;;4938822;28;20473;-77
2023/07/22 12:28:59;;;;;;;4.53;4.17;;;23.80;90.70;;;;;;4940201;28;20504;-80
2023/07/22 12:31:26;;;;;;;4.90;4.40;;;23.90;90.90;;;;;;4939311;28;20471;-80
2023/07/22 12:33:54;;;;;;;4.60;4.20;;;24.00;90.70;;;;;;4939932;28;20504;-81
2023/07/22 12:36:21;;;;;;;4.37;4.00;;;24.00;90.10;;;;;;4939933;28;20480;-77
2023/07/22 12:38:48;;;;;;;5.10;4.17;;;24.10;88.70;;;;;;4938602;28;20468;-78
2023/07/22 12:41:17;;;;;;;4.10;3.80;;;24.10;87.60;;;;;;4939795;28;20539;-81
2023/07/22 12:43:44;;;;;;;5.43;4.90;;;24.10;88.10;;;;;;4938662;28;20551;-80
2023/07/22 12:46:11;;;;;;;4.47;4.10;;;24.10;87.70;;;;;;4940123;28;20479;-80
2023/07/22 12:48:38;;;;;;;4.73;4.30;;;24.10;88.00;;;;;;4938349;28;20921;-78
2023/07/22 12:51:05;;;;;;;8.10;4.70;;;24.20;88.10;;;;;;4939805;28;20468;-80